Time;durP1;ratioP1;P1;durP2;ratioP2;P2;SDS_P1;SDS_P2;PMS_P1;PMS_P2;Temp;Humidity;BMP_temperature;BMP_pressure;BME280_temperature;BME280_humidity;BME280_pressure;Samples;Min_cycle;Max_cycle;Signal;HPM_P1;HPM_P2
2021/05/29 00:01:57;;;;;;;3.78;2.28;;;19.70;75.50;;;;;;5052953;28;20029;-77
2021/05/29 00:04:23;;;;;;;2.72;1.95;;;19.70;75.50;;;;;;5052695;28;20051;-78
2021/05/29 00:06:48;;;;;;;3.95;1.88;;;19.70;75.50;;;;;;5052803;28;20099;-77
2021/05/29 00:09:14;;;;;;;2.75;2.10;;;19.60;75.40;;;;;;5052481;28;20029;-77
2021/05/29 00:11:40;;;;;;;2.60;1.75;;;19.60;75.30;;;;;;5052751;28;20029;-79
2021/05/29 00:14:05;;;;;;;6.40;1.92;;;19.60;75.30;;;;;;5052891;28;20036;-78
2021/05/29 00:16:31;;;;;;;3.67;2.25;;;19.60;75.30;;;;;;5052282;28;20046;-78
2021/05/29 00:18:57;;;;;;;4.13;1.80;;;19.60;75.30;;;;;;5052663;28;20033;-77
2021/05/29 00:21:22;;;;;;;3.88;2.05;;;19.60;75.30;;;;;;5052318;28;20483;-77
2021/05/29 00:23:48;;;;;;;2.63;1.70;;;19.60;75.20;;;;;;5052018;28;20031;-77
2021/05/29 00:26:14;;;;;;;3.33;2.10;;;19.60;75.20;;;;;;5052263;28;20057;-77
2021/05/29 00:28:39;;;;;;;3.38;2.22;;;19.60;75.20;;;;;;5052287;28;20025;-77
2021/05/29 00:31:05;;;;;;;3.85;1.70;;;19.50;75.10;;;;;;5052810;28;20032;-77
2021/05/29 00:33:31;;;;;;;3.08;1.77;;;19.50;75.10;;;;;;5052498;28;20033;-77
2021/05/29 00:35:56;;;;;;;4.32;2.42;;;19.50;75.00;;;;;;5052354;28;20063;-76
2021/05/29 00:38:22;;;;;;;2.70;2.10;;;19.50;75.00;;;;;;5052261;28;20021;-77
2021/05/29 00:40:48;;;;;;;2.53;2.00;;;19.50;75.00;;;;;;5054676;28;20040;-79
2021/05/29 00:43:14;;;;;;;4.15;2.38;;;19.50;74.90;;;;;;5053922;28;20031;-80
2021/05/29 00:45:40;;;;;;;2.65;1.67;;;19.50;74.90;;;;;;5052088;28;20029;-82
2021/05/29 00:48:07;;;;;;;5.22;2.00;;;19.50;74.80;;;;;;5051494;28;20029;-78
2021/05/29 00:50:47;;;;;;;2.67;1.83;;;19.40;74.80;;;;;;5052436;28;20025;-80
2021/05/29 00:53:13;;;;;;;4.45;2.50;;;19.40;74.70;;;;;;5051156;28;20105;-80
2021/05/29 00:55:39;;;;;;;2.83;1.75;;;19.40;74.70;;;;;;5051313;28;20044;-78
2021/05/29 00:58:05;;;;;;;3.00;2.15;;;19.40;74.60;;;;;;5051921;28;20033;-79
2021/05/29 01:00:31;;;;;;;3.90;1.98;;;19.40;74.60;;;;;;5051611;28;20025;-79
2021/05/29 01:02:57;;;;;;;3.53;2.03;;;19.40;74.60;;;;;;5051762;28;20029;-78
2021/05/29 01:05:23;;;;;;;5.53;2.72;;;19.40;74.70;;;;;;5051493;28;20397;-79
2021/05/29 01:07:53;;;;;;;3.55;2.50;;;19.40;74.70;;;;;;5051636;28;20033;-79
2021/05/29 01:10:22;;;;;;;3.33;2.38;;;19.30;74.50;;;;;;5051455;28;20021;-78
2021/05/29 01:12:48;;;;;;;2.85;2.20;;;19.30;74.50;;;;;;5051454;28;20024;-79
2021/05/29 01:15:17;;;;;;;3.55;2.00;;;19.30;74.60;;;;;;5051370;28;20025;-79
2021/05/29 01:17:43;;;;;;;3.83;2.33;;;19.30;74.50;;;;;;5051534;28;20037;-78
2021/05/29 01:20:11;;;;;;;3.40;2.13;;;19.30;74.50;;;;;;5051240;28;20109;-78
2021/05/29 01:22:41;;;;;;;4.43;2.13;;;19.30;74.40;;;;;;5051348;28;20031;-78
2021/05/29 01:25:18;;;;;;;4.20;2.35;;;19.30;74.50;;;;;;5050803;28;20100;-77
2021/05/29 01:27:44;;;;;;;5.95;2.17;;;19.30;74.40;;;;;;5051024;28;20121;-79
2021/05/29 01:30:11;;;;;;;3.17;2.33;;;19.30;74.40;;;;;;5051132;28;20092;-79
2021/05/29 01:32:37;;;;;;;6.18;3.03;;;19.20;74.30;;;;;;5051326;28;20021;-77
2021/05/29 01:35:08;;;;;;;3.65;2.30;;;19.20;74.40;;;;;;5051622;28;20372;-79
2021/05/29 01:37:36;;;;;;;3.35;2.40;;;19.20;74.40;;;;;;5050219;28;20125;-78
2021/05/29 01:40:03;;;;;;;3.50;2.38;;;19.20;74.40;;;;;;5051582;28;20112;-77
2021/05/29 01:42:30;;;;;;;3.47;2.50;;;19.20;74.30;;;;;;5050627;28;20029;-79
2021/05/29 01:44:56;;;;;;;2.95;2.15;;;19.20;74.30;;;;;;5051289;28;20025;-78
2021/05/29 01:47:21;;;;;;;4.22;2.78;;;19.20;74.30;;;;;;5051030;28;20025;-78
2021/05/29 01:49:47;;;;;;;3.72;2.15;;;19.20;74.30;;;;;;5050777;28;20032;-78
2021/05/29 01:52:13;;;;;;;5.97;3.25;;;19.20;74.30;;;;;;5082937;28;20569;-78
2021/05/29 01:54:39;;;;;;;4.03;2.60;;;19.10;74.20;;;;;;5051040;28;20029;-77
2021/05/29 01:57:04;;;;;;;3.85;2.50;;;19.10;74.20;;;;;;5051425;28;20041;-77
2021/05/29 01:59:30;;;;;;;4.22;3.20;;;19.10;74.20;;;;;;5050983;28;20032;-77
2021/05/29 02:01:56;;;;;;;4.43;3.05;;;19.10;74.20;;;;;;5054861;28;20037;-79
2021/05/29 02:04:21;;;;;;;4.28;2.75;;;19.10;74.20;;;;;;5054842;28;20481;-77
2021/05/29 02:06:47;;;;;;;4.18;2.95;;;19.10;74.20;;;;;;5054861;28;20037;-77
2021/05/29 02:09:13;;;;;;;4.90;3.40;;;19.10;74.10;;;;;;5055028;28;20025;-78
2021/05/29 02:11:38;;;;;;;4.28;2.95;;;19.10;74.10;;;;;;5055089;28;20021;-78
2021/05/29 02:14:04;;;;;;;3.70;2.83;;;19.10;74.10;;;;;;5055315;28;20021;-77
2021/05/29 02:16:30;;;;;;;5.13;3.28;;;19.10;74.00;;;;;;5054648;28;20489;-80
2021/05/29 02:18:55;;;;;;;4.65;2.65;;;19.10;74.10;;;;;;5054823;28;20071;-79
2021/05/29 02:21:21;;;;;;;4.97;3.38;;;19.10;74.20;;;;;;5054828;28;20032;-78
2021/05/29 02:23:49;;;;;;;4.53;2.80;;;19.10;74.20;;;;;;5054314;28;20032;-78
2021/05/29 02:26:18;;;;;;;4.18;2.78;;;19.10;74.10;;;;;;5054217;28;20024;-78
2021/05/29 02:28:49;;;;;;;4.35;3.15;;;19.00;74.00;;;;;;5054708;28;20029;-78
2021/05/29 02:31:15;;;;;;;4.32;3.30;;;19.00;74.00;;;;;;5054339;28;20091;-77
2021/05/29 02:33:41;;;;;;;5.60;2.75;;;19.00;74.00;;;;;;5054536;28;20047;-78
2021/05/29 02:36:08;;;;;;;4.22;2.67;;;19.00;74.00;;;;;;5054251;28;20501;-76
2021/05/29 02:38:34;;;;;;;4.65;3.38;;;19.00;74.00;;;;;;5054731;28;20025;-78
2021/05/29 02:41:05;;;;;;;4.55;3.30;;;19.00;74.00;;;;;;5054534;28;20493;-78
2021/05/29 02:43:31;;;;;;;5.90;3.25;;;19.00;74.00;;;;;;5053781;28;20493;-78
2021/05/29 02:45:56;;;;;;;4.93;2.95;;;19.00;74.00;;;;;;5054362;28;20067;-78
2021/05/29 02:48:22;;;;;;;3.08;2.60;;;18.90;74.00;;;;;;5054038;28;20025;-78
2021/05/29 02:50:48;;;;;;;4.95;3.60;;;18.90;73.90;;;;;;5056516;28;20366;-79
2021/05/29 02:53:15;;;;;;;4.97;3.40;;;18.90;74.00;;;;;;5055394;28;20492;-78
2021/05/29 02:55:41;;;;;;;6.03;3.30;;;18.90;73.90;;;;;;5053991;28;20017;-78
2021/05/29 02:58:07;;;;;;;5.10;3.03;;;18.90;73.90;;;;;;5053903;28;20389;-77
2021/05/29 03:00:39;;;;;;;4.75;3.25;;;18.90;73.90;;;;;;5054319;28;20366;-77
2021/05/29 03:03:07;;;;;;;5.03;3.08;;;18.90;74.00;;;;;;5054443;28;20104;-77
2021/05/29 03:05:35;;;;;;;4.82;3.47;;;18.90;73.90;;;;;;5053622;28;20017;-77
2021/05/29 03:08:01;;;;;;;5.07;3.58;;;18.90;73.90;;;;;;5053708;28;20033;-78
2021/05/29 03:10:26;;;;;;;5.05;3.30;;;18.90;73.90;;;;;;5053372;28;20040;-78
2021/05/29 03:12:53;;;;;;;5.90;3.45;;;18.90;74.00;;;;;;5053721;28;20017;-79
2021/05/29 03:15:23;;;;;;;4.25;3.17;;;18.90;73.90;;;;;;5068427;28;20087;-77
2021/05/29 03:17:49;;;;;;;6.47;3.40;;;18.80;73.80;;;;;;5053658;28;20036;-78
2021/05/29 03:20:18;;;;;;;4.32;2.83;;;18.90;73.90;;;;;;5053626;28;20032;-76
2021/05/29 03:22:45;;;;;;;5.13;3.55;;;18.80;73.90;;;;;;5053808;28;20098;-78
2021/05/29 03:25:12;;;;;;;5.60;3.78;;;18.80;73.90;;;;;;5048084;28;20024;-78
2021/05/29 03:27:38;;;;;;;5.28;3.58;;;18.80;73.80;;;;;;5033376;28;20029;-78
2021/05/29 03:30:08;;;;;;;3.47;2.92;;;18.80;73.90;;;;;;5033627;28;20033;-79
2021/05/29 03:32:34;;;;;;;4.78;3.40;;;18.80;73.80;;;;;;5033548;28;20448;-79
2021/05/29 03:34:59;;;;;;;4.53;3.30;;;18.80;73.90;;;;;;5033614;28;20021;-78
2021/05/29 03:37:25;;;;;;;7.07;3.88;;;18.80;73.90;;;;;;5047422;28;20465;-78
2021/05/29 03:39:51;;;;;;;5.72;3.70;;;18.80;73.90;;;;;;5052890;28;20021;-78
2021/05/29 03:42:16;;;;;;;5.28;3.40;;;18.80;73.90;;;;;;5053309;28;20104;-80
2021/05/29 03:44:42;;;;;;;6.40;3.78;;;18.80;73.90;;;;;;5052310;28;20481;-78
2021/05/29 03:47:08;;;;;;;4.10;3.22;;;18.80;73.90;;;;;;5053274;28;20021;-79
2021/05/29 03:49:34;;;;;;;4.38;3.35;;;18.80;73.80;;;;;;5053103;28;20031;-79
2021/05/29 03:51:59;;;;;;;5.47;3.10;;;18.70;73.70;;;;;;5053102;28;20028;-79
2021/05/29 03:54:25;;;;;;;4.25;3.20;;;18.70;73.70;;;;;;5051452;28;20036;-79
2021/05/29 03:56:51;;;;;;;5.22;3.25;;;18.70;73.70;;;;;;5052672;28;20045;-80
2021/05/29 03:59:16;;;;;;;4.90;3.03;;;18.70;73.70;;;;;;5052799;28;20024;-79
2021/05/29 04:01:43;;;;;;;4.82;3.10;;;18.70;73.70;;;;;;5052666;28;20029;-79
2021/05/29 04:04:09;;;;;;;4.07;3.08;;;18.70;73.70;;;;;;5052866;28;20123;-79
2021/05/29 04:06:35;;;;;;;5.47;3.63;;;18.70;73.80;;;;;;5052761;28;20512;-78
2021/05/29 04:09:03;;;;;;;4.70;3.55;;;18.70;73.80;;;;;;5052771;28;20473;-78
2021/05/29 04:11:28;;;;;;;5.30;3.55;;;18.70;73.80;;;;;;5052434;28;20404;-78
2021/05/29 04:13:54;;;;;;;4.60;3.28;;;18.60;73.70;;;;;;5052410;28;20029;-79
2021/05/29 04:16:21;;;;;;;5.45;3.72;;;18.60;73.70;;;;;;5052626;28;20033;-79
2021/05/29 04:18:46;;;;;;;4.60;3.22;;;18.60;73.70;;;;;;5052468;28;20025;-78
2021/05/29 04:21:12;;;;;;;6.30;3.63;;;18.60;74.40;;;;;;5052608;28;20534;-79
2021/05/29 04:23:38;;;;;;;7.40;3.78;;;18.60;73.70;;;;;;5051319;28;20364;-78
2021/05/29 04:26:07;;;;;;;4.78;4.15;;;18.70;73.80;;;;;;5051934;28;20029;-78
2021/05/29 04:28:37;;;;;;;5.70;3.72;;;18.60;73.80;;;;;;5050374;28;20060;-78
2021/05/29 04:31:04;;;;;;;4.72;3.65;;;18.60;73.80;;;;;;5052372;28;20021;-78
2021/05/29 04:33:30;;;;;;;6.10;3.67;;;18.60;73.70;;;;;;5052026;28;20103;-78
2021/05/29 04:35:56;;;;;;;6.75;3.75;;;18.60;73.70;;;;;;5051815;28;20765;-80
2021/05/29 04:38:21;;;;;;;5.63;4.00;;;18.60;73.70;;;;;;5052226;28;20053;-78
2021/05/29 04:40:48;;;;;;;5.70;3.65;;;18.60;73.80;;;;;;5051620;28;20368;-78
2021/05/29 04:43:13;;;;;;;4.88;3.42;;;18.60;73.70;;;;;;5052156;28;20017;-78
2021/05/29 04:45:41;;;;;;;4.57;3.30;;;18.60;73.70;;;;;;5051554;28;20112;-77
2021/05/29 04:48:07;;;;;;;4.90;3.63;;;18.60;73.60;;;;;;5052308;28;20495;-78
2021/05/29 04:51:11;;;;;;;4.43;3.03;;;18.60;73.60;;;;;;5051797;28;20089;-79
2021/05/29 04:53:19;;;;;;;5.00;3.42;;;18.60;73.60;;;;;;5051819;28;20024;-78
2021/05/29 04:55:44;;;;;;;4.75;3.65;;;18.60;73.60;;;;;;5051175;28;20032;-79
2021/05/29 04:58:10;;;;;;;5.45;3.45;;;18.50;73.50;;;;;;5050613;28;20033;-77
2021/05/29 05:00:36;;;;;;;4.22;3.55;;;18.60;73.60;;;;;;5050951;28;20118;-78
2021/05/29 05:03:01;;;;;;;4.57;3.63;;;18.50;73.40;;;;;;5051750;28;20067;-79
2021/05/29 05:05:27;;;;;;;5.13;3.60;;;18.50;73.50;;;;;;5051708;28;20101;-78
2021/05/29 05:07:52;;;;;;;5.57;3.70;;;18.50;73.50;;;;;;5050676;28;20048;-78
2021/05/29 05:10:18;;;;;;;6.30;3.72;;;18.50;73.50;;;;;;5051553;28;20017;-78
2021/05/29 05:12:44;;;;;;;4.85;3.45;;;18.50;74.20;;;;;;5051355;28;20078;-78
2021/05/29 05:15:10;;;;;;;5.95;3.40;;;18.50;73.50;;;;;;5051633;28;20072;-77
2021/05/29 05:17:36;;;;;;;4.85;3.78;;;18.50;74.20;;;;;;5051178;28;20131;-78
2021/05/29 05:20:02;;;;;;;4.43;3.40;;;18.50;73.50;;;;;;5051700;28;20104;-76
2021/05/29 05:22:28;;;;;;;5.03;3.72;;;18.50;73.60;;;;;;5051159;28;20024;-73
2021/05/29 05:24:54;;;;;;;4.80;3.47;;;18.60;73.60;;;;;;5051491;28;20075;-73
2021/05/29 05:27:19;;;;;;;6.10;3.10;;;18.60;73.50;;;;;;5051440;28;20029;-73
2021/05/29 05:29:45;;;;;;;5.00;2.92;;;18.60;73.60;;;;;;5051140;28;20033;-79
2021/05/29 05:32:10;;;;;;;4.47;3.20;;;18.50;73.80;;;;;;5051720;28;20032;-81
2021/05/29 05:34:36;;;;;;;5.60;3.40;;;18.50;73.80;;;;;;5050929;28;20425;-80
2021/05/29 05:37:02;;;;;;;4.68;2.92;;;18.60;73.80;;;;;;5050504;28;20079;-78
2021/05/29 05:39:27;;;;;;;3.92;3.22;;;18.50;73.70;;;;;;5051095;28;20013;-79
2021/05/29 05:41:53;;;;;;;4.25;3.42;;;18.50;73.90;;;;;;5050990;28;20495;-78
2021/05/29 05:44:19;;;;;;;5.95;3.70;;;18.60;74.10;;;;;;5051071;28;20021;-79
2021/05/29 05:46:44;;;;;;;5.40;3.35;;;18.50;74.10;;;;;;5049974;28;20053;-78
2021/05/29 05:49:10;;;;;;;5.78;3.33;;;18.60;74.00;;;;;;5051037;28;20100;-80
2021/05/29 05:51:36;;;;;;;4.53;3.10;;;18.60;74.20;;;;;;5050567;28;20037;-76
2021/05/29 05:54:03;;;;;;;4.05;3.10;;;18.60;74.00;;;;;;5050240;28;20199;-75
2021/05/29 05:56:29;;;;;;;8.13;2.88;;;18.60;74.00;;;;;;5050543;28;20037;-74
2021/05/29 05:58:57;;;;;;;5.20;3.03;;;18.60;73.90;;;;;;5050916;28;20025;-75
2021/05/29 06:01:23;;;;;;;4.75;3.13;;;18.60;73.90;;;;;;5050786;28;20086;-75
2021/05/29 06:03:49;;;;;;;6.15;3.38;;;18.60;73.80;;;;;;5050470;28;20040;-80
2021/05/29 06:06:15;;;;;;;4.97;3.28;;;18.60;73.90;;;;;;5050738;28;20423;-78
2021/05/29 06:08:40;;;;;;;9.20;3.55;;;18.60;73.90;;;;;;5049272;28;20094;-76
2021/05/29 06:11:06;;;;;;;6.20;3.35;;;18.60;73.90;;;;;;5049643;28;20392;-76
2021/05/29 06:21:26;;;;;;;4.72;2.65;;;18.70;74.10;;;;;;5050767;28;20027;-79
2021/05/29 06:23:51;;;;;;;7.10;3.90;;;18.70;74.20;;;;;;5049336;28;20100;-76
2021/05/29 06:26:17;;;;;;;5.38;2.83;;;18.70;74.20;;;;;;5050124;28;20021;-78
2021/05/29 06:28:42;;;;;;;7.50;2.65;;;18.70;74.30;;;;;;5048595;28;20029;-77
2021/05/29 06:31:08;;;;;;;7.93;2.65;;;18.80;74.30;;;;;;5050231;28;20025;-77
2021/05/29 06:33:34;;;;;;;6.20;2.30;;;18.80;74.50;;;;;;5047948;28;20507;-75
2021/05/29 06:36:00;;;;;;;4.68;2.45;;;18.90;75.20;;;;;;5047846;28;20116;-77
2021/05/29 06:38:25;;;;;;;6.90;2.67;;;19.00;75.40;;;;;;5048707;28;20096;-74
2021/05/29 06:40:51;;;;;;;4.43;2.47;;;19.10;74.40;;;;;;5047740;28;20029;-76
2021/05/29 06:43:17;;;;;;;3.53;1.88;;;19.10;74.20;;;;;;5048565;28;20520;-76
2021/05/29 06:45:43;;;;;;;4.32;2.33;;;19.20;74.10;;;;;;5050544;28;20033;-76
2021/05/29 06:48:10;;;;;;;4.65;2.60;;;19.30;74.10;;;;;;5053932;28;20405;-75
2021/05/29 06:50:36;;;;;;;6.30;2.67;;;19.40;74.20;;;;;;5052618;28;20029;-77
2021/05/29 06:53:05;;;;;;;4.65;3.17;;;19.50;74.00;;;;;;5053272;28;20121;-79
2021/05/29 07:01:00;;;;;;;9.30;2.58;;;19.70;73.50;;;;;;5054093;28;20032;-79
2021/05/29 07:03:26;;;;;;;5.20;2.83;;;19.80;73.80;;;;;;5053174;28;20025;-79
2021/05/29 07:05:51;;;;;;;7.05;3.05;;;19.90;74.60;;;;;;5053017;28;20048;-77
2021/05/29 07:08:17;;;;;;;11.93;2.50;;;20.00;74.50;;;;;;5053746;28;20108;-79
2021/05/29 07:10:43;;;;;;;4.95;2.30;;;20.10;74.20;;;;;;5053556;28;20114;-81
2021/05/29 07:13:08;;;;;;;3.88;2.58;;;20.20;74.10;;;;;;5053916;28;20385;-76
2021/05/29 07:15:37;;;;;;;5.25;3.88;;;20.30;74.00;;;;;;5052804;28;20033;-75
2021/05/29 07:18:12;;;;;;;4.13;3.03;;;20.40;74.20;;;;;;5051636;28;20459;-77
2021/05/29 07:20:39;;;;;;;5.38;2.40;;;20.60;73.70;;;;;;5053067;28;20089;-81
2021/05/29 07:23:06;;;;;;;6.28;2.53;;;20.70;73.40;;;;;;5053008;28;20044;-82
2021/05/29 07:25:32;;;;;;;3.80;2.58;;;20.80;73.10;;;;;;5052223;28;20039;-79
2021/05/29 07:27:58;;;;;;;4.65;2.67;;;20.90;72.80;;;;;;5053354;28;20017;-76
2021/05/29 07:30:24;;;;;;;6.82;2.63;;;21.00;72.90;;;;;;5053540;28;20025;-76
2021/05/29 07:32:51;;;;;;;8.45;2.63;;;21.00;71.90;;;;;;5052641;28;20094;-77
2021/05/29 07:35:17;;;;;;;4.18;2.67;;;21.10;71.10;;;;;;5053140;28;20055;-74
2021/05/29 07:37:43;;;;;;;4.35;2.50;;;21.00;70.00;;;;;;5053342;28;20065;-76
2021/05/29 07:40:08;;;;;;;9.30;2.45;;;21.00;70.00;;;;;;5046762;28;20071;-75
2021/05/29 07:42:35;;;;;;;6.15;2.47;;;21.00;70.20;;;;;;5048310;28;20025;-80
2021/05/29 07:45:01;;;;;;;4.30;2.22;;;21.00;69.40;;;;;;5052734;28;20078;-81
2021/05/29 07:47:26;;;;;;;7.03;2.30;;;21.10;68.80;;;;;;5044576;28;20485;-84
2021/05/29 07:49:52;;;;;;;3.42;2.20;;;21.10;68.80;;;;;;5050856;28;20021;-79
2021/05/29 07:52:18;;;;;;;5.57;2.60;;;21.10;68.70;;;;;;5049619;28;20025;-80
2021/05/29 07:54:44;;;;;;;6.93;2.67;;;21.20;68.00;;;;;;5050633;28;20099;-74
2021/05/29 07:57:09;;;;;;;7.85;2.40;;;21.20;67.90;;;;;;5050223;28;20029;-74
2021/05/29 07:59:37;;;;;;;6.30;3.15;;;21.10;68.50;;;;;;5050455;28;20067;-75
2021/05/29 08:02:03;;;;;;;5.35;2.88;;;21.10;70.20;;;;;;5050703;28;20029;-74
2021/05/29 08:04:29;;;;;;;16.70;3.17;;;21.20;69.70;;;;;;5050635;28;20021;-75
2021/05/29 08:06:54;;;;;;;8.90;2.75;;;21.20;71.50;;;;;;5050490;28;20024;-73
2021/05/29 08:09:20;;;;;;;11.68;2.63;;;21.20;73.10;;;;;;5050747;28;20495;-73
2021/05/29 08:11:46;;;;;;;12.82;3.58;;;21.20;73.10;;;;;;5050899;28;20027;-73
2021/05/29 08:14:12;;;;;;;9.27;3.17;;;21.20;74.00;;;;;;5051546;28;20031;-73
2021/05/29 08:16:40;;;;;;;7.13;3.00;;;21.20;72.90;;;;;;5051381;28;20091;-74
2021/05/29 08:19:11;;;;;;;5.60;3.35;;;21.20;74.10;;;;;;5051639;28;20016;-75
2021/05/29 08:21:43;;;;;;;6.10;3.00;;;21.20;73.40;;;;;;5049841;28;20033;-76
2021/05/29 08:24:11;;;;;;;6.05;2.85;;;21.20;74.00;;;;;;5051392;28;20025;-75
2021/05/29 08:26:37;;;;;;;5.43;2.80;;;21.20;74.20;;;;;;5051747;28;20458;-75
2021/05/29 08:29:04;;;;;;;4.45;2.15;;;21.10;74.00;;;;;;5051582;28;20489;-75
2021/05/29 08:31:29;;;;;;;8.27;3.10;;;21.10;73.90;;;;;;5050954;28;20021;-75
2021/05/29 08:33:55;;;;;;;6.18;2.80;;;21.10;73.90;;;;;;5051067;28;20032;-75
2021/05/29 08:36:21;;;;;;;6.82;2.50;;;21.10;73.80;;;;;;5051253;28;20087;-76
2021/05/29 08:38:48;;;;;;;4.03;2.20;;;21.00;74.70;;;;;;5050778;28;20550;-76
2021/05/29 08:41:14;;;;;;;5.65;2.30;;;21.00;68.30;;;;;;5050472;28;20025;-76
2021/05/29 08:43:40;;;;;;;7.05;2.30;;;20.90;68.10;;;;;;5049865;28;20398;-76
2021/05/29 08:46:06;;;;;;;5.40;2.30;;;20.90;69.00;;;;;;5051183;28;20488;-76
2021/05/29 08:48:32;;;;;;;4.57;2.22;;;20.90;69.00;;;;;;5049521;28;20078;-75
2021/05/29 08:51:13;;;;;;;3.45;1.90;;;20.90;69.20;;;;;;5049570;28;20029;-76
2021/05/29 08:53:41;;;;;;;2.95;1.77;;;20.90;69.10;;;;;;5049718;28;20028;-76
2021/05/29 08:56:06;;;;;;;5.65;2.08;;;20.90;69.00;;;;;;5047859;28;20040;-75
2021/05/29 08:58:32;;;;;;;5.55;2.03;;;20.90;69.10;;;;;;5045919;28;20021;-76
2021/05/29 09:01:00;;;;;;;4.03;1.40;;;20.90;68.50;;;;;;5047757;28;20017;-75
2021/05/29 09:03:45;;;;;;;4.78;1.73;;;20.80;67.90;;;;;;5048955;28;20151;-76
2021/05/29 09:06:13;;;;;;;5.25;2.03;;;20.90;68.40;;;;;;5050985;28;20401;-76
2021/05/29 09:08:53;;;;;;;4.43;2.08;;;20.80;66.50;;;;;;5048874;28;20029;-76
2021/05/29 09:11:49;;;;;;;11.45;2.00;;;20.80;67.10;;;;;;5044797;28;20504;-76
2021/05/29 09:14:32;;;;;;;6.30;1.80;;;20.80;67.20;;;;;;5056859;28;20036;-77
2021/05/29 09:17:09;;;;;;;5.65;1.67;;;20.90;68.20;;;;;;5048443;28;20033;-77
2021/05/29 09:20:00;;;;;;;5.60;1.90;;;20.80;67.90;;;;;;5050114;28;20032;-75
2021/05/29 09:22:30;;;;;;;2.75;1.20;;;20.80;67.70;;;;;;5043333;28;20025;-75
2021/05/29 09:25:02;;;;;;;4.05;1.60;;;20.80;67.70;;;;;;5049590;28;20052;-77
2021/05/29 09:27:27;;;;;;;4.57;1.50;;;20.80;67.50;;;;;;5078506;28;20021;-77
2021/05/29 09:29:53;;;;;;;2.35;1.20;;;20.80;68.60;;;;;;5047533;28;20040;-78
2021/05/29 09:32:19;;;;;;;4.70;1.60;;;20.80;68.10;;;;;;5048901;28;20036;-76
2021/05/29 09:34:52;;;;;;;3.85;2.00;;;20.80;68.80;;;;;;5050326;28;20496;-79
2021/05/29 09:37:27;;;;;;;6.18;1.50;;;20.80;69.20;;;;;;5050522;28;20029;-76
2021/05/29 09:39:59;;;;;;;5.00;1.92;;;20.70;69.00;;;;;;5050576;28;20021;-79
2021/05/29 09:42:34;;;;;;;6.50;1.70;;;20.70;69.10;;;;;;5050403;28;20033;-83
2021/05/29 09:45:21;;;;;;;3.78;1.52;;;20.80;69.70;;;;;;5048695;28;20043;-77
2021/05/29 09:48:16;;;;;;;4.32;1.70;;;20.80;70.00;;;;;;5039409;28;20112;-79
2021/05/29 09:51:06;;;;;;;7.27;2.20;;;20.80;69.80;;;;;;5069758;28;20115;-78
2021/05/29 09:53:33;;;;;;;4.18;1.45;;;20.80;70.50;;;;;;5057306;28;20032;-77
2021/05/29 09:56:00;;;;;;;6.82;2.08;;;20.80;70.00;;;;;;5050456;28;20377;-79
2021/05/29 09:58:48;;;;;;;4.68;1.52;;;20.80;70.70;;;;;;5050644;28;20029;-79
2021/05/29 10:01:36;;;;;;;6.70;1.80;;;20.80;70.90;;;;;;5051204;28;20036;-79
2021/05/29 10:04:03;;;;;;;11.77;1.77;;;20.80;71.10;;;;;;5050709;28;20037;-78
2021/05/29 10:06:29;;;;;;;4.13;1.70;;;20.80;71.00;;;;;;5050515;28;20033;-79
2021/05/29 10:08:55;;;;;;;4.75;1.33;;;20.80;71.30;;;;;;5049521;28;20519;-78
2021/05/29 10:11:21;;;;;;;4.22;1.60;;;20.80;71.70;;;;;;5045243;28;20044;-79
2021/05/29 10:13:46;;;;;;;5.40;1.73;;;20.80;71.70;;;;;;5062439;28;20033;-81
2021/05/29 10:16:14;;;;;;;2.90;1.30;;;20.90;72.20;;;;;;5049888;28;20028;-81
2021/05/29 10:18:42;;;;;;;5.53;1.30;;;20.80;72.20;;;;;;5049612;28;20040;-80
2021/05/29 10:21:09;;;;;;;5.70;1.58;;;20.80;72.00;;;;;;5049446;28;20484;-77
2021/05/29 10:23:36;;;;;;;2.08;1.17;;;20.90;72.20;;;;;;5053917;28;20388;-78
2021/05/29 10:26:03;;;;;;;2.60;1.52;;;20.80;72.90;;;;;;5053390;28;20052;-78
2021/05/29 10:28:30;;;;;;;3.97;1.65;;;20.90;72.20;;;;;;5053665;28;20121;-77
2021/05/29 10:30:56;;;;;;;4.47;1.38;;;20.90;72.20;;;;;;5053627;28;20508;-77
2021/05/29 10:33:23;;;;;;;7.22;1.92;;;20.90;72.30;;;;;;5054128;28;20075;-77
2021/05/29 10:35:49;;;;;;;2.63;1.17;;;20.90;72.20;;;;;;5053571;28;20032;-77
2021/05/29 10:38:16;;;;;;;3.88;1.50;;;20.90;72.30;;;;;;5053711;28;20112;-77
2021/05/29 10:40:43;;;;;;;2.03;1.23;;;20.90;72.20;;;;;;5052081;28;20033;-77
2021/05/29 10:43:15;;;;;;;4.68;2.08;;;20.90;71.80;;;;;;5052194;28;20039;-77
2021/05/29 10:45:50;;;;;;;3.50;1.33;;;20.90;72.30;;;;;;5052708;28;20040;-76
2021/05/29 10:48:17;;;;;;;3.33;1.10;;;20.90;72.20;;;;;;5053929;28;20024;-76
2021/05/29 10:53:48;;;;;;;6.07;1.40;;;20.90;72.50;;;;;;5053598;28;20029;-78
2021/05/29 10:56:16;;;;;;;2.20;1.20;;;20.90;72.50;;;;;;5038460;28;20021;-79
2021/05/29 10:59:13;;;;;;;2.33;1.50;;;20.90;74.30;;;;;;5051719;28;20032;-76
2021/05/29 11:01:40;;;;;;;4.63;1.40;;;20.90;75.70;;;;;;5017116;28;20044;-79
2021/05/29 11:04:12;;;;;;;4.28;1.35;;;21.00;76.20;;;;;;5051470;28;20516;-79
2021/05/29 11:06:42;;;;;;;3.85;1.23;;;21.00;75.30;;;;;;5052806;28;20025;-78
2021/05/29 11:09:09;;;;;;;3.22;1.60;;;21.00;75.30;;;;;;5047912;28;20100;-77
2021/05/29 11:14:03;;;;;;;4.13;1.83;;;21.00;74.30;;;;;;5037026;28;20100;-79
2021/05/29 11:16:54;;;;;;;3.65;1.40;;;21.00;74.40;;;;;;5051439;28;20392;-83
2021/05/29 11:19:22;;;;;;;4.63;1.40;;;21.00;73.70;;;;;;5053567;28;20078;-78
2021/05/29 11:22:17;;;;;;;2.75;1.67;;;21.00;74.30;;;;;;5051861;28;20021;-81
2021/05/29 11:24:49;;;;;;;3.00;1.77;;;21.00;73.60;;;;;;5049419;28;20035;-81
2021/05/29 11:27:17;;;;;;;3.83;1.67;;;21.00;75.00;;;;;;5052829;28;20037;-79
2021/05/29 11:29:53;;;;;;;2.47;1.30;;;21.00;73.40;;;;;;5052167;28;20017;-78
2021/05/29 11:33:24;;;;;;;5.93;1.45;;;21.00;72.80;;;;;;5051932;28;20024;-79
2021/05/29 11:35:37;;;;;;;2.92;1.92;;;21.00;72.50;;;;;;5048733;28;20113;-78
2021/05/29 11:38:27;;;;;;;3.25;1.85;;;21.00;72.40;;;;;;5079704;28;20086;-78
2021/05/29 11:41:00;;;;;;;2.47;1.80;;;21.00;72.40;;;;;;5050082;28;20147;-78
2021/05/29 11:43:53;;;;;;;4.20;1.60;;;21.00;71.90;;;;;;5050698;28;20099;-78
2021/05/29 11:46:25;;;;;;;3.03;1.58;;;21.00;71.50;;;;;;5053898;28;20117;-78
2021/05/29 11:49:02;;;;;;;4.38;1.20;;;21.00;71.40;;;;;;5051820;28;20028;-78
2021/05/29 11:51:32;;;;;;;5.00;1.50;;;21.10;71.70;;;;;;5052168;28;20111;-78
2021/05/29 11:54:19;;;;;;;6.13;2.13;;;21.10;71.30;;;;;;5052563;28;20522;-78
2021/05/29 11:56:48;;;;;;;4.95;1.50;;;21.10;71.20;;;;;;5049739;28;20033;-78
2021/05/29 11:59:16;;;;;;;4.75;1.98;;;21.10;71.40;;;;;;5051282;28;20027;-77
2021/05/29 12:01:48;;;;;;;2.65;1.48;;;21.10;71.20;;;;;;5051494;28;20025;-77
2021/05/29 12:04:18;;;;;;;5.45;2.90;;;21.10;70.80;;;;;;5051976;28;20025;-77
2021/05/29 12:06:48;;;;;;;6.97;3.40;;;21.10;70.30;;;;;;5046048;28;20051;-77
2021/05/29 12:09:17;;;;;;;5.97;3.00;;;21.10;70.10;;;;;;5050658;28;20029;-77
2021/05/29 12:11:45;;;;;;;5.55;3.25;;;21.20;70.00;;;;;;5050804;28;20063;-77
2021/05/29 12:14:26;;;;;;;4.53;2.60;;;21.20;69.90;;;;;;5051215;28;20071;-77
2021/05/29 12:16:56;;;;;;;4.30;2.55;;;21.10;69.70;;;;;;5061516;28;20032;-77
2021/05/29 12:19:33;;;;;;;5.90;2.78;;;21.20;69.80;;;;;;5052153;28;20037;-77
2021/05/29 12:22:23;;;;;;;5.28;2.80;;;21.20;69.60;;;;;;5050455;28;20027;-77
2021/05/29 12:25:02;;;;;;;6.55;2.85;;;21.20;69.40;;;;;;5050151;28;20034;-77
2021/05/29 12:27:30;;;;;;;5.63;2.70;;;21.20;69.20;;;;;;5050245;28;20036;-76
2021/05/29 12:29:57;;;;;;;4.90;2.75;;;21.20;68.90;;;;;;5051808;28;20021;-77
2021/05/29 12:32:33;;;;;;;3.97;2.63;;;21.30;68.90;;;;;;5051845;28;20484;-77
2021/05/29 12:34:59;;;;;;;4.32;2.45;;;21.30;68.70;;;;;;5051512;28;20481;-77
2021/05/29 12:37:32;;;;;;;6.47;3.20;;;21.30;68.90;;;;;;5050662;28;20099;-76
2021/05/29 12:40:02;;;;;;;4.05;2.40;;;21.30;68.60;;;;;;5051142;28;20040;-77
2021/05/29 12:42:43;;;;;;;6.07;2.92;;;21.30;68.50;;;;;;5051176;28;20044;-77
2021/05/29 12:45:19;;;;;;;3.83;2.53;;;21.30;68.50;;;;;;5050727;28;20079;-77
2021/05/29 12:48:04;;;;;;;9.40;2.97;;;21.30;68.60;;;;;;5050843;28;20469;-76
2021/05/29 12:50:32;;;;;;;4.13;2.45;;;21.30;68.50;;;;;;5049658;28;20103;-77
2021/05/29 12:53:11;;;;;;;4.07;2.70;;;21.40;68.20;;;;;;5051450;28;20032;-78
2021/05/29 12:55:37;;;;;;;6.78;3.00;;;21.40;68.00;;;;;;5050182;28;20021;-78
2021/05/29 12:58:20;;;;;;;4.95;2.38;;;21.40;67.80;;;;;;5033400;28;20047;-78
2021/05/29 13:09:13;;;;;;;5.72;2.13;;;21.50;67.20;;;;;;5041361;28;20543;-78
2021/05/29 13:11:39;;;;;;;5.25;2.05;;;21.50;67.20;;;;;;5049635;28;20031;-78
2021/05/29 13:14:10;;;;;;;5.47;2.17;;;21.60;67.40;;;;;;5049979;28;20028;-78
2021/05/29 13:17:06;;;;;;;3.88;2.10;;;21.50;67.30;;;;;;5049661;28;20047;-78
2021/05/29 13:19:52;;;;;;;3.35;2.20;;;21.60;67.00;;;;;;5036287;28;20492;-76
2021/05/29 13:22:20;;;;;;;3.42;1.90;;;21.50;66.90;;;;;;5035698;28;20084;-78